sensor_id;sensor_type;location;lat;lon;timestamp;P1;durP1;ratioP1;P2;durP2;ratioP2
2177;SDS011;1095;50.992;6.798;2023-06-22T00:00:49;7.57;;;6.15;;
2177;SDS011;1095;50.992;6.798;2023-06-22T00:03:18;7.72;;;5.95;;
2177;SDS011;1095;50.992;6.798;2023-06-22T00:05:46;11.57;;;5.90;;
2177;SDS011;1095;50.992;6.798;2023-06-22T00:08:13;7.18;;;5.60;;
2177;SDS011;1095;50.992;6.798;2023-06-22T00:10:41;6.60;;;5.70;;
2177;SDS011;1095;50.992;6.798;2023-06-22T00:13:08;9.00;;;5.90;;
2177;SDS011;1095;50.992;6.798;2023-06-22T00:15:36;6.43;;;5.47;;
2177;SDS011;1095;50.992;6.798;2023-06-22T00:18:04;6.63;;;5.25;;
2177;SDS011;1095;50.992;6.798;2023-06-22T00:20:32;6.85;;;5.05;;
2177;SDS011;1095;50.992;6.798;2023-06-22T00:23:02;9.02;;;5.75;;
2177;SDS011;1095;50.992;6.798;2023-06-22T00:25:32;8.25;;;5.70;;
2177;SDS011;1095;50.992;6.798;2023-06-22T00:27:59;9.45;;;5.65;;
2177;SDS011;1095;50.992;6.798;2023-06-22T00:30:26;9.75;;;5.53;;
2177;SDS011;1095;50.992;6.798;2023-06-22T00:32:52;10.70;;;5.30;;
2177;SDS011;1095;50.992;6.798;2023-06-22T00:35:19;6.75;;;5.50;;
2177;SDS011;1095;50.992;6.798;2023-06-22T00:37:47;7.65;;;5.78;;
2177;SDS011;1095;50.992;6.798;2023-06-22T00:40:13;8.13;;;5.70;;
2177;SDS011;1095;50.992;6.798;2023-06-22T00:42:46;7.22;;;5.50;;
2177;SDS011;1095;50.992;6.798;2023-06-22T00:45:13;7.20;;;5.65;;
2177;SDS011;1095;50.992;6.798;2023-06-22T00:47:40;10.90;;;6.15;;
2177;SDS011;1095;50.992;6.798;2023-06-22T00:50:09;7.18;;;5.68;;
2177;SDS011;1095;50.992;6.798;2023-06-22T00:52:43;7.70;;;5.85;;
2177;SDS011;1095;50.992;6.798;2023-06-22T00:55:12;7.10;;;5.88;;
2177;SDS011;1095;50.992;6.798;2023-06-22T00:57:42;8.70;;;5.93;;
2177;SDS011;1095;50.992;6.798;2023-06-22T01:00:10;7.35;;;5.88;;
2177;SDS011;1095;50.992;6.798;2023-06-22T01:02:44;9.75;;;5.80;;
2177;SDS011;1095;50.992;6.798;2023-06-22T01:05:17;6.77;;;5.40;;
2177;SDS011;1095;50.992;6.798;2023-06-22T01:07:47;10.68;;;5.38;;
2177;SDS011;1095;50.992;6.798;2023-06-22T01:10:27;7.28;;;5.85;;
2177;SDS011;1095;50.992;6.798;2023-06-22T01:13:01;9.10;;;5.63;;
2177;SDS011;1095;50.992;6.798;2023-06-22T01:15:31;10.65;;;5.90;;
2177;SDS011;1095;50.992;6.798;2023-06-22T01:18:02;8.40;;;5.50;;
2177;SDS011;1095;50.992;6.798;2023-06-22T01:20:30;8.43;;;5.75;;
2177;SDS011;1095;50.992;6.798;2023-06-22T01:23:07;8.25;;;6.18;;
2177;SDS011;1095;50.992;6.798;2023-06-22T01:25:43;7.88;;;5.88;;
2177;SDS011;1095;50.992;6.798;2023-06-22T01:28:23;7.20;;;5.88;;
2177;SDS011;1095;50.992;6.798;2023-06-22T01:31:00;9.32;;;5.85;;
2177;SDS011;1095;50.992;6.798;2023-06-22T01:33:31;8.68;;;5.40;;
2177;SDS011;1095;50.992;6.798;2023-06-22T01:36:00;9.45;;;5.75;;
2177;SDS011;1095;50.992;6.798;2023-06-22T01:38:27;9.55;;;6.22;;
2177;SDS011;1095;50.992;6.798;2023-06-22T01:40:56;8.73;;;5.80;;
2177;SDS011;1095;50.992;6.798;2023-06-22T01:43:23;7.47;;;5.75;;
2177;SDS011;1095;50.992;6.798;2023-06-22T01:45:54;10.77;;;6.15;;
2177;SDS011;1095;50.992;6.798;2023-06-22T01:48:21;10.57;;;5.88;;
2177;SDS011;1095;50.992;6.798;2023-06-22T01:50:50;7.22;;;5.97;;
2177;SDS011;1095;50.992;6.798;2023-06-22T01:53:17;8.90;;;5.50;;
2177;SDS011;1095;50.992;6.798;2023-06-22T01:55:44;10.40;;;6.20;;
2177;SDS011;1095;50.992;6.798;2023-06-22T01:58:11;7.90;;;5.72;;
2177;SDS011;1095;50.992;6.798;2023-06-22T02:00:38;8.65;;;5.72;;
2177;SDS011;1095;50.992;6.798;2023-06-22T02:03:13;10.35;;;5.90;;
2177;SDS011;1095;50.992;6.798;2023-06-22T02:05:46;9.55;;;6.25;;
2177;SDS011;1095;50.992;6.798;2023-06-22T02:08:16;9.50;;;5.93;;
2177;SDS011;1095;50.992;6.798;2023-06-22T02:10:46;11.35;;;6.38;;
2177;SDS011;1095;50.992;6.798;2023-06-22T02:13:15;7.85;;;5.82;;
2177;SDS011;1095;50.992;6.798;2023-06-22T02:15:42;7.32;;;5.95;;
2177;SDS011;1095;50.992;6.798;2023-06-22T02:18:09;8.68;;;6.32;;
2177;SDS011;1095;50.992;6.798;2023-06-22T02:20:38;7.43;;;5.97;;
2177;SDS011;1095;50.992;6.798;2023-06-22T02:23:05;9.25;;;5.85;;
2177;SDS011;1095;50.992;6.798;2023-06-22T02:25:32;9.52;;;6.40;;
2177;SDS011;1095;50.992;6.798;2023-06-22T02:28:00;7.07;;;5.50;;
2177;SDS011;1095;50.992;6.798;2023-06-22T02:30:27;11.55;;;5.93;;
2177;SDS011;1095;50.992;6.798;2023-06-22T02:32:53;9.95;;;5.70;;
2177;SDS011;1095;50.992;6.798;2023-06-22T02:35:27;11.13;;;6.30;;
2177;SDS011;1095;50.992;6.798;2023-06-22T02:37:56;7.47;;;6.03;;
2177;SDS011;1095;50.992;6.798;2023-06-22T02:40:23;10.30;;;6.20;;
2177;SDS011;1095;50.992;6.798;2023-06-22T02:42:49;9.35;;;6.13;;
2177;SDS011;1095;50.992;6.798;2023-06-22T02:45:16;7.38;;;6.15;;
2177;SDS011;1095;50.992;6.798;2023-06-22T02:47:42;8.35;;;5.88;;
2177;SDS011;1095;50.992;6.798;2023-06-22T02:50:09;7.75;;;5.85;;
2177;SDS011;1095;50.992;6.798;2023-06-22T02:52:38;7.78;;;6.35;;
2177;SDS011;1095;50.992;6.798;2023-06-22T02:55:05;9.73;;;6.00;;
2177;SDS011;1095;50.992;6.798;2023-06-22T02:57:33;9.38;;;5.63;;
2177;SDS011;1095;50.992;6.798;2023-06-22T03:00:01;8.30;;;6.15;;
2177;SDS011;1095;50.992;6.798;2023-06-22T03:02:31;7.85;;;6.43;;
2177;SDS011;1095;50.992;6.798;2023-06-22T03:04:58;9.07;;;6.05;;
2177;SDS011;1095;50.992;6.798;2023-06-22T03:07:26;9.18;;;6.38;;
2177;SDS011;1095;50.992;6.798;2023-06-22T03:09:54;10.77;;;6.97;;
2177;SDS011;1095;50.992;6.798;2023-06-22T03:12:20;7.97;;;5.80;;
2177;SDS011;1095;50.992;6.798;2023-06-22T03:14:49;12.25;;;7.20;;
2177;SDS011;1095;50.992;6.798;2023-06-22T03:17:15;7.90;;;6.32;;
2177;SDS011;1095;50.992;6.798;2023-06-22T03:19:42;9.23;;;7.03;;
2177;SDS011;1095;50.992;6.798;2023-06-22T03:22:09;9.43;;;7.22;;
2177;SDS011;1095;50.992;6.798;2023-06-22T03:24:35;9.13;;;7.00;;
2177;SDS011;1095;50.992;6.798;2023-06-22T03:27:05;10.65;;;6.80;;
2177;SDS011;1095;50.992;6.798;2023-06-22T03:29:32;10.50;;;7.18;;
2177;SDS011;1095;50.992;6.798;2023-06-22T03:31:59;9.93;;;6.93;;
2177;SDS011;1095;50.992;6.798;2023-06-22T03:34:25;8.30;;;6.68;;
2177;SDS011;1095;50.992;6.798;2023-06-22T03:36:52;11.75;;;7.35;;
2177;SDS011;1095;50.992;6.798;2023-06-22T03:39:19;10.10;;;7.72;;
2177;SDS011;1095;50.992;6.798;2023-06-22T03:41:46;9.27;;;6.97;;
2177;SDS011;1095;50.992;6.798;2023-06-22T03:44:13;13.30;;;6.75;;
2177;SDS011;1095;50.992;6.798;2023-06-22T03:46:40;9.20;;;6.65;;
2177;SDS011;1095;50.992;6.798;2023-06-22T03:49:07;12.35;;;7.25;;
2177;SDS011;1095;50.992;6.798;2023-06-22T03:51:33;12.60;;;7.05;;
2177;SDS011;1095;50.992;6.798;2023-06-22T03:54:00;10.50;;;7.10;;
2177;SDS011;1095;50.992;6.798;2023-06-22T03:56:27;10.65;;;7.63;;
2177;SDS011;1095;50.992;6.798;2023-06-22T03:58:56;11.88;;;7.43;;
2177;SDS011;1095;50.992;6.798;2023-06-22T04:01:24;11.13;;;7.93;;
2177;SDS011;1095;50.992;6.798;2023-06-22T04:03:51;13.95;;;7.88;;
2177;SDS011;1095;50.992;6.798;2023-06-22T04:10:07;10.10;;;8.25;;
2177;SDS011;1095;50.992;6.798;2023-06-22T04:13:00;13.68;;;7.85;;
2177;SDS011;1095;50.992;6.798;2023-06-22T04:16:02;11.23;;;7.40;;
2177;SDS011;1095;50.992;6.798;2023-06-22T04:18:30;11.60;;;7.28;;
2177;SDS011;1095;50.992;6.798;2023-06-22T04:20:57;11.35;;;7.35;;
2177;SDS011;1095;50.992;6.798;2023-06-22T04:23:24;12.45;;;8.10;;
2177;SDS011;1095;50.992;6.798;2023-06-22T04:25:50;10.00;;;7.57;;
2177;SDS011;1095;50.992;6.798;2023-06-22T04:28:17;9.18;;;7.10;;
2177;SDS011;1095;50.992;6.798;2023-06-22T04:30:44;8.82;;;7.45;;
2177;SDS011;1095;50.992;6.798;2023-06-22T04:33:12;11.05;;;7.75;;
2177;SDS011;1095;50.992;6.798;2023-06-22T04:35:40;13.10;;;7.43;;
2177;SDS011;1095;50.992;6.798;2023-06-22T04:38:08;14.70;;;8.18;;
2177;SDS011;1095;50.992;6.798;2023-06-22T04:40:35;10.05;;;7.50;;
2177;SDS011;1095;50.992;6.798;2023-06-22T04:43:02;9.18;;;8.07;;
2177;SDS011;1095;50.992;6.798;2023-06-22T04:45:29;9.20;;;7.22;;
2177;SDS011;1095;50.992;6.798;2023-06-22T04:47:55;11.32;;;7.80;;
2177;SDS011;1095;50.992;6.798;2023-06-22T04:50:22;8.93;;;7.50;;
2177;SDS011;1095;50.992;6.798;2023-06-22T04:52:50;12.82;;;7.82;;
2177;SDS011;1095;50.992;6.798;2023-06-22T04:55:17;9.82;;;7.75;;
2177;SDS011;1095;50.992;6.798;2023-06-22T04:57:45;11.40;;;7.97;;
2177;SDS011;1095;50.992;6.798;2023-06-22T05:00:14;12.80;;;8.45;;
2177;SDS011;1095;50.992;6.798;2023-06-22T05:02:42;12.27;;;8.85;;
2177;SDS011;1095;50.992;6.798;2023-06-22T05:05:09;10.02;;;8.27;;
2177;SDS011;1095;50.992;6.798;2023-06-22T05:07:38;12.52;;;8.55;;
2177;SDS011;1095;50.992;6.798;2023-06-22T05:10:09;9.40;;;7.80;;
2177;SDS011;1095;50.992;6.798;2023-06-22T05:12:37;13.98;;;8.30;;
2177;SDS011;1095;50.992;6.798;2023-06-22T05:15:04;15.27;;;8.80;;
2177;SDS011;1095;50.992;6.798;2023-06-22T05:17:32;11.13;;;8.68;;
2177;SDS011;1095;50.992;6.798;2023-06-22T05:20:02;13.93;;;10.60;;
2177;SDS011;1095;50.992;6.798;2023-06-22T05:22:38;14.07;;;8.60;;
2177;SDS011;1095;50.992;6.798;2023-06-22T05:25:10;10.38;;;8.55;;
2177;SDS011;1095;50.992;6.798;2023-06-22T05:27:37;11.40;;;8.52;;
2177;SDS011;1095;50.992;6.798;2023-06-22T05:30:09;13.23;;;8.47;;
2177;SDS011;1095;50.992;6.798;2023-06-22T05:32:36;11.90;;;8.10;;
2177;SDS011;1095;50.992;6.798;2023-06-22T05:35:11;12.07;;;8.13;;
2177;SDS011;1095;50.992;6.798;2023-06-22T05:37:43;10.35;;;8.85;;
2177;SDS011;1095;50.992;6.798;2023-06-22T05:40:16;11.65;;;8.07;;
2177;SDS011;1095;50.992;6.798;2023-06-22T05:42:43;12.38;;;7.90;;
2177;SDS011;1095;50.992;6.798;2023-06-22T05:45:31;12.52;;;7.80;;
2177;SDS011;1095;50.992;6.798;2023-06-22T05:48:00;13.18;;;7.95;;
2177;SDS011;1095;50.992;6.798;2023-06-22T05:50:36;12.40;;;7.75;;
2177;SDS011;1095;50.992;6.798;2023-06-22T05:53:10;16.45;;;8.73;;
2177;SDS011;1095;50.992;6.798;2023-06-22T05:55:39;10.48;;;8.05;;
2177;SDS011;1095;50.992;6.798;2023-06-22T05:58:07;9.00;;;7.60;;
2177;SDS011;1095;50.992;6.798;2023-06-22T06:01:17;11.38;;;7.65;;
2177;SDS011;1095;50.992;6.798;2023-06-22T06:03:37;11.98;;;8.25;;
2177;SDS011;1095;50.992;6.798;2023-06-22T06:06:06;10.00;;;8.15;;
2177;SDS011;1095;50.992;6.798;2023-06-22T06:08:42;12.20;;;8.45;;
2177;SDS011;1095;50.992;6.798;2023-06-22T06:11:12;10.45;;;8.45;;
2177;SDS011;1095;50.992;6.798;2023-06-22T06:13:39;14.00;;;8.50;;
2177;SDS011;1095;50.992;6.798;2023-06-22T06:16:05;11.68;;;8.82;;
2177;SDS011;1095;50.992;6.798;2023-06-22T06:18:32;11.60;;;7.90;;
2177;SDS011;1095;50.992;6.798;2023-06-22T06:20:59;12.32;;;8.55;;
2177;SDS011;1095;50.992;6.798;2023-06-22T06:23:25;13.73;;;9.00;;
2177;SDS011;1095;50.992;6.798;2023-06-22T06:25:52;10.60;;;8.43;;
2177;SDS011;1095;50.992;6.798;2023-06-22T06:28:20;11.70;;;8.30;;
2177;SDS011;1095;50.992;6.798;2023-06-22T06:30:47;11.30;;;7.80;;
2177;SDS011;1095;50.992;6.798;2023-06-22T06:33:16;11.30;;;8.35;;
2177;SDS011;1095;50.992;6.798;2023-06-22T06:35:43;11.45;;;8.38;;
2177;SDS011;1095;50.992;6.798;2023-06-22T06:38:10;12.82;;;8.95;;
2177;SDS011;1095;50.992;6.798;2023-06-22T06:40:36;11.18;;;8.73;;
2177;SDS011;1095;50.992;6.798;2023-06-22T06:43:03;14.13;;;10.20;;
2177;SDS011;1095;50.992;6.798;2023-06-22T06:45:31;12.63;;;9.68;;
2177;SDS011;1095;50.992;6.798;2023-06-22T06:47:59;16.42;;;10.90;;
2177;SDS011;1095;50.992;6.798;2023-06-22T06:50:26;15.88;;;11.90;;
2177;SDS011;1095;50.992;6.798;2023-06-22T06:52:54;11.77;;;10.05;;
2177;SDS011;1095;50.992;6.798;2023-06-22T06:55:21;13.82;;;10.98;;
2177;SDS011;1095;50.992;6.798;2023-06-22T06:57:50;13.48;;;11.02;;
2177;SDS011;1095;50.992;6.798;2023-06-22T07:00:18;11.80;;;10.60;;
2177;SDS011;1095;50.992;6.798;2023-06-22T07:02:46;12.98;;;10.45;;
2177;SDS011;1095;50.992;6.798;2023-06-22T07:05:15;18.48;;;12.30;;
2177;SDS011;1095;50.992;6.798;2023-06-22T07:07:41;12.60;;;9.82;;
2177;SDS011;1095;50.992;6.798;2023-06-22T07:10:08;13.35;;;10.75;;
2177;SDS011;1095;50.992;6.798;2023-06-22T07:12:36;14.07;;;11.10;;
2177;SDS011;1095;50.992;6.798;2023-06-22T07:15:03;14.02;;;11.25;;
2177;SDS011;1095;50.992;6.798;2023-06-22T07:17:32;14.32;;;10.82;;
2177;SDS011;1095;50.992;6.798;2023-06-22T07:20:01;16.83;;;11.23;;
2177;SDS011;1095;50.992;6.798;2023-06-22T07:22:32;16.65;;;11.63;;
2177;SDS011;1095;50.992;6.798;2023-06-22T07:24:59;16.50;;;11.20;;
2177;SDS011;1095;50.992;6.798;2023-06-22T07:27:26;14.55;;;11.40;;
2177;SDS011;1095;50.992;6.798;2023-06-22T07:29:53;13.52;;;11.27;;
2177;SDS011;1095;50.992;6.798;2023-06-22T07:32:20;15.95;;;11.75;;
2177;SDS011;1095;50.992;6.798;2023-06-22T07:34:46;11.75;;;10.55;;
2177;SDS011;1095;50.992;6.798;2023-06-22T07:37:14;14.65;;;11.63;;
2177;SDS011;1095;50.992;6.798;2023-06-22T07:39:41;24.70;;;12.20;;
2177;SDS011;1095;50.992;6.798;2023-06-22T07:42:08;15.27;;;11.70;;
2177;SDS011;1095;50.992;6.798;2023-06-22T07:44:35;15.35;;;11.85;;
2177;SDS011;1095;50.992;6.798;2023-06-22T07:47:01;13.95;;;12.52;;
2177;SDS011;1095;50.992;6.798;2023-06-22T07:49:28;15.10;;;12.88;;
2177;SDS011;1095;50.992;6.798;2023-06-22T07:51:55;13.30;;;12.00;;
2177;SDS011;1095;50.992;6.798;2023-06-22T07:54:23;14.38;;;12.75;;
2177;SDS011;1095;50.992;6.798;2023-06-22T07:56:50;15.02;;;12.38;;
2177;SDS011;1095;50.992;6.798;2023-06-22T07:59:17;13.70;;;12.30;;
2177;SDS011;1095;50.992;6.798;2023-06-22T08:01:44;17.25;;;13.20;;
2177;SDS011;1095;50.992;6.798;2023-06-22T08:04:10;13.77;;;12.27;;
2177;SDS011;1095;50.992;6.798;2023-06-22T08:06:37;14.25;;;12.85;;
2177;SDS011;1095;50.992;6.798;2023-06-22T08:09:04;14.73;;;12.38;;
2177;SDS011;1095;50.992;6.798;2023-06-22T08:11:32;14.98;;;13.40;;
2177;SDS011;1095;50.992;6.798;2023-06-22T08:13:59;14.85;;;13.35;;
2177;SDS011;1095;50.992;6.798;2023-06-22T08:16:25;23.25;;;15.65;;
2177;SDS011;1095;50.992;6.798;2023-06-22T08:18:52;14.68;;;13.20;;
2177;SDS011;1095;50.992;6.798;2023-06-22T08:21:19;16.58;;;12.95;;
2177;SDS011;1095;50.992;6.798;2023-06-22T08:23:46;29.38;;;14.35;;
2177;SDS011;1095;50.992;6.798;2023-06-22T08:26:13;13.65;;;12.35;;
2177;SDS011;1095;50.992;6.798;2023-06-22T08:28:41;14.18;;;12.75;;
2177;SDS011;1095;50.992;6.798;2023-06-22T08:31:08;12.25;;;10.95;;
2177;SDS011;1095;50.992;6.798;2023-06-22T08:33:39;12.88;;;10.70;;
2177;SDS011;1095;50.992;6.798;2023-06-22T08:36:05;12.05;;;10.85;;
2177;SDS011;1095;50.992;6.798;2023-06-22T08:38:39;14.02;;;10.50;;
2177;SDS011;1095;50.992;6.798;2023-06-22T08:41:06;13.55;;;11.63;;
2177;SDS011;1095;50.992;6.798;2023-06-22T08:43:33;13.18;;;11.18;;
2177;SDS011;1095;50.992;6.798;2023-06-22T08:46:01;13.18;;;10.70;;
2177;SDS011;1095;50.992;6.798;2023-06-22T08:48:29;14.20;;;11.43;;
2177;SDS011;1095;50.992;6.798;2023-06-22T08:50:55;13.23;;;10.38;;
2177;SDS011;1095;50.992;6.798;2023-06-22T08:53:22;14.00;;;10.18;;
2177;SDS011;1095;50.992;6.798;2023-06-22T08:55:49;13.50;;;10.68;;
2177;SDS011;1095;50.992;6.798;2023-06-22T08:58:16;12.63;;;11.23;;
2177;SDS011;1095;50.992;6.798;2023-06-22T09:00:45;10.73;;;9.52;;
2177;SDS011;1095;50.992;6.798;2023-06-22T09:03:13;11.90;;;10.60;;
2177;SDS011;1095;50.992;6.798;2023-06-22T09:05:43;11.50;;;9.93;;
2177;SDS011;1095;50.992;6.798;2023-06-22T09:08:10;11.07;;;9.95;;
2177;SDS011;1095;50.992;6.798;2023-06-22T09:10:37;14.52;;;10.00;;
2177;SDS011;1095;50.992;6.798;2023-06-22T09:13:03;12.00;;;10.75;;
2177;SDS011;1095;50.992;6.798;2023-06-22T09:15:30;12.40;;;10.23;;
2177;SDS011;1095;50.992;6.798;2023-06-22T09:17:57;10.60;;;9.52;;
2177;SDS011;1095;50.992;6.798;2023-06-22T09:20:25;10.95;;;9.65;;
2177;SDS011;1095;50.992;6.798;2023-06-22T09:22:52;11.15;;;9.55;;
2177;SDS011;1095;50.992;6.798;2023-06-22T09:25:18;10.43;;;9.40;;
2177;SDS011;1095;50.992;6.798;2023-06-22T09:27:46;10.93;;;9.15;;
2177;SDS011;1095;50.992;6.798;2023-06-22T09:30:12;11.25;;;9.32;;
2177;SDS011;1095;50.992;6.798;2023-06-22T09:32:39;12.20;;;9.35;;
2177;SDS011;1095;50.992;6.798;2023-06-22T09:35:07;13.65;;;10.27;;
2177;SDS011;1095;50.992;6.798;2023-06-22T09:37:36;11.45;;;9.63;;
2177;SDS011;1095;50.992;6.798;2023-06-22T09:40:03;11.18;;;10.05;;
2177;SDS011;1095;50.992;6.798;2023-06-22T09:42:34;11.30;;;9.90;;
2177;SDS011;1095;50.992;6.798;2023-06-22T09:45:01;13.93;;;10.43;;
2177;SDS011;1095;50.992;6.798;2023-06-22T09:47:28;13.05;;;11.20;;
2177;SDS011;1095;50.992;6.798;2023-06-22T09:49:55;10.73;;;9.48;;
2177;SDS011;1095;50.992;6.798;2023-06-22T09:52:24;11.13;;;9.27;;
2177;SDS011;1095;50.992;6.798;2023-06-22T09:54:52;13.82;;;10.82;;
2177;SDS011;1095;50.992;6.798;2023-06-22T09:57:18;13.50;;;10.63;;
2177;SDS011;1095;50.992;6.798;2023-06-22T09:59:45;10.95;;;9.85;;
2177;SDS011;1095;50.992;6.798;2023-06-22T10:02:12;11.07;;;9.68;;
2177;SDS011;1095;50.992;6.798;2023-06-22T10:04:38;12.63;;;10.57;;
2177;SDS011;1095;50.992;6.798;2023-06-22T10:07:05;12.05;;;10.85;;
2177;SDS011;1095;50.992;6.798;2023-06-22T10:09:32;11.95;;;10.57;;
2177;SDS011;1095;50.992;6.798;2023-06-22T10:12:03;12.20;;;10.35;;
2177;SDS011;1095;50.992;6.798;2023-06-22T10:14:30;12.13;;;10.77;;
2177;SDS011;1095;50.992;6.798;2023-06-22T10:16:56;11.45;;;10.18;;
2177;SDS011;1095;50.992;6.798;2023-06-22T10:19:23;11.23;;;10.05;;
2177;SDS011;1095;50.992;6.798;2023-06-22T10:21:50;14.65;;;10.60;;
2177;SDS011;1095;50.992;6.798;2023-06-22T10:24:17;12.90;;;10.57;;
2177;SDS011;1095;50.992;6.798;2023-06-22T10:26:43;15.38;;;11.77;;
2177;SDS011;1095;50.992;6.798;2023-06-22T10:29:11;15.50;;;12.00;;
2177;SDS011;1095;50.992;6.798;2023-06-22T10:31:38;17.23;;;12.40;;
2177;SDS011;1095;50.992;6.798;2023-06-22T10:34:05;16.17;;;12.18;;
2177;SDS011;1095;50.992;6.798;2023-06-22T10:36:31;13.82;;;12.52;;
2177;SDS011;1095;50.992;6.798;2023-06-22T10:38:58;16.20;;;11.68;;
2177;SDS011;1095;50.992;6.798;2023-06-22T10:41:26;18.13;;;12.77;;
2177;SDS011;1095;50.992;6.798;2023-06-22T10:43:55;20.00;;;13.27;;
2177;SDS011;1095;50.992;6.798;2023-06-22T10:46:23;19.77;;;14.30;;
2177;SDS011;1095;50.992;6.798;2023-06-22T10:48:50;19.00;;;14.30;;
2177;SDS011;1095;50.992;6.798;2023-06-22T10:51:19;18.30;;;14.20;;
2177;SDS011;1095;50.992;6.798;2023-06-22T10:53:45;18.83;;;15.35;;
2177;SDS011;1095;50.992;6.798;2023-06-22T10:56:12;18.65;;;15.35;;
2177;SDS011;1095;50.992;6.798;2023-06-22T10:58:39;20.77;;;14.75;;
2177;SDS011;1095;50.992;6.798;2023-06-22T11:03:37;17.08;;;15.25;;
2177;SDS011;1095;50.992;6.798;2023-06-22T11:06:53;20.65;;;16.63;;
2177;SDS011;1095;50.992;6.798;2023-06-22T11:09:45;19.77;;;16.15;;
2177;SDS011;1095;50.992;6.798;2023-06-22T11:12:57;20.15;;;16.52;;
2177;SDS011;1095;50.992;6.798;2023-06-22T11:15:32;19.58;;;16.88;;
2177;SDS011;1095;50.992;6.798;2023-06-22T11:18:13;19.17;;;16.70;;
2177;SDS011;1095;50.992;6.798;2023-06-22T11:20:56;21.88;;;18.50;;
2177;SDS011;1095;50.992;6.798;2023-06-22T11:23:36;22.75;;;17.85;;
2177;SDS011;1095;50.992;6.798;2023-06-22T11:26:21;19.27;;;16.77;;
2177;SDS011;1095;50.992;6.798;2023-06-22T11:28:50;20.15;;;18.02;;
2177;SDS011;1095;50.992;6.798;2023-06-22T11:32:47;19.63;;;17.52;;
2177;SDS011;1095;50.992;6.798;2023-06-22T11:35:08;19.90;;;17.85;;
2177;SDS011;1095;50.992;6.798;2023-06-22T11:40:35;22.17;;;19.10;;
2177;SDS011;1095;50.992;6.798;2023-06-22T11:45:57;21.58;;;19.27;;
2177;SDS011;1095;50.992;6.798;2023-06-22T11:48:42;21.92;;;19.25;;
2177;SDS011;1095;50.992;6.798;2023-06-22T11:51:12;23.90;;;20.17;;
2177;SDS011;1095;50.992;6.798;2023-06-22T11:53:53;21.70;;;18.70;;
2177;SDS011;1095;50.992;6.798;2023-06-22T11:56:29;21.52;;;19.23;;
2177;SDS011;1095;50.992;6.798;2023-06-22T11:58:57;26.77;;;21.10;;
2177;SDS011;1095;50.992;6.798;2023-06-22T12:01:29;26.63;;;21.90;;
2177;SDS011;1095;50.992;6.798;2023-06-22T12:04:04;27.48;;;24.27;;
2177;SDS011;1095;50.992;6.798;2023-06-22T12:06:37;26.38;;;23.58;;
2177;SDS011;1095;50.992;6.798;2023-06-22T12:09:22;26.80;;;22.75;;
2177;SDS011;1095;50.992;6.798;2023-06-22T12:11:52;25.23;;;22.63;;
2177;SDS011;1095;50.992;6.798;2023-06-22T12:14:21;26.77;;;23.83;;
2177;SDS011;1095;50.992;6.798;2023-06-22T12:17:14;24.92;;;22.25;;
2177;SDS011;1095;50.992;6.798;2023-06-22T12:20:11;26.25;;;23.70;;
2177;SDS011;1095;50.992;6.798;2023-06-22T12:22:57;27.10;;;24.30;;
2177;SDS011;1095;50.992;6.798;2023-06-22T12:25:39;27.05;;;24.05;;
2177;SDS011;1095;50.992;6.798;2023-06-22T12:28:23;28.55;;;22.83;;
2177;SDS011;1095;50.992;6.798;2023-06-22T12:30:53;27.30;;;24.40;;
2177;SDS011;1095;50.992;6.798;2023-06-22T12:36:33;24.98;;;22.23;;
2177;SDS011;1095;50.992;6.798;2023-06-22T12:39:13;23.50;;;21.20;;
2177;SDS011;1095;50.992;6.798;2023-06-22T12:42:12;23.75;;;21.42;;
2177;SDS011;1095;50.992;6.798;2023-06-22T12:48:18;25.30;;;22.80;;
2177;SDS011;1095;50.992;6.798;2023-06-22T12:50:45;26.33;;;23.60;;
2177;SDS011;1095;50.992;6.798;2023-06-22T12:53:35;29.33;;;22.77;;
2177;SDS011;1095;50.992;6.798;2023-06-22T12:56:07;22.05;;;19.77;;
2177;SDS011;1095;50.992;6.798;2023-06-22T12:58:43;17.63;;;15.85;;
2177;SDS011;1095;50.992;6.798;2023-06-22T13:01:19;18.23;;;16.13;;
2177;SDS011;1095;50.992;6.798;2023-06-22T13:03:56;16.95;;;15.23;;
2177;SDS011;1095;50.992;6.798;2023-06-22T13:06:24;16.50;;;13.77;;
2177;SDS011;1095;50.992;6.798;2023-06-22T13:08:50;16.85;;;13.52;;
2177;SDS011;1095;50.992;6.798;2023-06-22T13:11:17;15.45;;;13.43;;
2177;SDS011;1095;50.992;6.798;2023-06-22T13:13:45;14.00;;;12.52;;
2177;SDS011;1095;50.992;6.798;2023-06-22T13:16:12;15.00;;;13.15;;
2177;SDS011;1095;50.992;6.798;2023-06-22T13:18:39;15.20;;;12.63;;
2177;SDS011;1095;50.992;6.798;2023-06-22T13:21:06;14.85;;;13.30;;
2177;SDS011;1095;50.992;6.798;2023-06-22T13:23:32;15.07;;;13.52;;
2177;SDS011;1095;50.992;6.798;2023-06-22T13:25:59;14.38;;;12.52;;
2177;SDS011;1095;50.992;6.798;2023-06-22T13:28:26;15.50;;;12.68;;
2177;SDS011;1095;50.992;6.798;2023-06-22T13:30:55;14.45;;;13.02;;
2177;SDS011;1095;50.992;6.798;2023-06-22T13:33:22;12.75;;;11.45;;
2177;SDS011;1095;50.992;6.798;2023-06-22T13:35:48;13.00;;;11.75;;
2177;SDS011;1095;50.992;6.798;2023-06-22T13:38:15;13.48;;;12.05;;
2177;SDS011;1095;50.992;6.798;2023-06-22T13:40:42;13.18;;;11.77;;
2177;SDS011;1095;50.992;6.798;2023-06-22T13:43:09;15.13;;;13.05;;
2177;SDS011;1095;50.992;6.798;2023-06-22T13:45:35;14.93;;;12.57;;
2177;SDS011;1095;50.992;6.798;2023-06-22T13:48:08;13.88;;;12.48;;
2177;SDS011;1095;50.992;6.798;2023-06-22T13:50:34;13.63;;;12.20;;
2177;SDS011;1095;50.992;6.798;2023-06-22T13:53:01;14.85;;;13.40;;
2177;SDS011;1095;50.992;6.798;2023-06-22T13:55:28;18.30;;;12.15;;
2177;SDS011;1095;50.992;6.798;2023-06-22T13:57:55;14.80;;;12.25;;
2177;SDS011;1095;50.992;6.798;2023-06-22T14:00:22;14.80;;;12.65;;
2177;SDS011;1095;50.992;6.798;2023-06-22T14:02:49;13.60;;;12.18;;
2177;SDS011;1095;50.992;6.798;2023-06-22T14:05:17;12.15;;;10.68;;
2177;SDS011;1095;50.992;6.798;2023-06-22T14:07:44;11.57;;;10.45;;
2177;SDS011;1095;50.992;6.798;2023-06-22T14:10:11;13.35;;;11.52;;
2177;SDS011;1095;50.992;6.798;2023-06-22T14:12:38;12.05;;;10.38;;
2177;SDS011;1095;50.992;6.798;2023-06-22T14:15:05;12.50;;;11.32;;
2177;SDS011;1095;50.992;6.798;2023-06-22T14:17:32;13.43;;;10.82;;
2177;SDS011;1095;50.992;6.798;2023-06-22T14:19:59;15.82;;;11.57;;
2177;SDS011;1095;50.992;6.798;2023-06-22T14:22:27;14.10;;;11.90;;
2177;SDS011;1095;50.992;6.798;2023-06-22T14:24:54;13.68;;;11.88;;
2177;SDS011;1095;50.992;6.798;2023-06-22T14:27:22;13.15;;;11.95;;
2177;SDS011;1095;50.992;6.798;2023-06-22T14:29:52;14.38;;;12.68;;
2177;SDS011;1095;50.992;6.798;2023-06-22T14:32:18;15.48;;;13.98;;
2177;SDS011;1095;50.992;6.798;2023-06-22T14:34:45;14.88;;;13.38;;
2177;SDS011;1095;50.992;6.798;2023-06-22T14:37:11;16.67;;;15.00;;
2177;SDS011;1095;50.992;6.798;2023-06-22T14:39:40;18.95;;;17.02;;
2177;SDS011;1095;50.992;6.798;2023-06-22T14:42:08;16.85;;;15.23;;
2177;SDS011;1095;50.992;6.798;2023-06-22T14:44:35;17.27;;;15.40;;
2177;SDS011;1095;50.992;6.798;2023-06-22T14:47:05;16.33;;;13.77;;
2177;SDS011;1095;50.992;6.798;2023-06-22T14:49:32;16.70;;;14.23;;
2177;SDS011;1095;50.992;6.798;2023-06-22T14:51:59;16.30;;;14.70;;
2177;SDS011;1095;50.992;6.798;2023-06-22T14:54:26;16.45;;;14.85;;
2177;SDS011;1095;50.992;6.798;2023-06-22T14:56:55;15.10;;;13.60;;
2177;SDS011;1095;50.992;6.798;2023-06-22T14:59:21;15.57;;;13.98;;
2177;SDS011;1095;50.992;6.798;2023-06-22T15:01:48;17.55;;;15.20;;
2177;SDS011;1095;50.992;6.798;2023-06-22T15:04:15;16.13;;;13.57;;
2177;SDS011;1095;50.992;6.798;2023-06-22T15:06:41;14.70;;;13.20;;
2177;SDS011;1095;50.992;6.798;2023-06-22T15:09:09;13.05;;;11.43;;
2177;SDS011;1095;50.992;6.798;2023-06-22T15:11:36;13.68;;;11.68;;
2177;SDS011;1095;50.992;6.798;2023-06-22T15:14:03;12.75;;;11.45;;
2177;SDS011;1095;50.992;6.798;2023-06-22T15:16:35;14.18;;;12.07;;
2177;SDS011;1095;50.992;6.798;2023-06-22T15:19:04;18.85;;;12.57;;
2177;SDS011;1095;50.992;6.798;2023-06-22T15:21:30;13.65;;;12.25;;
2177;SDS011;1095;50.992;6.798;2023-06-22T15:23:57;14.07;;;12.65;;
2177;SDS011;1095;50.992;6.798;2023-06-22T15:26:24;19.27;;;13.18;;
2177;SDS011;1095;50.992;6.798;2023-06-22T15:28:51;20.33;;;16.48;;
2177;SDS011;1095;50.992;6.798;2023-06-22T15:31:22;19.85;;;17.73;;